sensor_id;sensor_type;location;lat;lon;timestamp;P1;durP1;ratioP1;P2;durP2;ratioP2
10122;SDS011;5101;49.038;8.710;2022-12-18T00:01:22;44.70;;;25.87;;
10122;SDS011;5101;49.038;8.710;2022-12-18T00:03:54;44.67;;;24.33;;
10122;SDS011;5101;49.038;8.710;2022-12-18T00:06:21;43.03;;;24.20;;
10122;SDS011;5101;49.038;8.710;2022-12-18T00:08:47;37.57;;;22.63;;
10122;SDS011;5101;49.038;8.710;2022-12-18T00:11:14;44.73;;;24.80;;
10122;SDS011;5101;49.038;8.710;2022-12-18T00:13:41;42.50;;;25.57;;
10122;SDS011;5101;49.038;8.710;2022-12-18T00:16:08;43.03;;;24.87;;
10122;SDS011;5101;49.038;8.710;2022-12-18T00:18:36;40.17;;;24.73;;
10122;SDS011;5101;49.038;8.710;2022-12-18T00:21:03;41.80;;;23.70;;
10122;SDS011;5101;49.038;8.710;2022-12-18T00:23:32;46.17;;;25.37;;
10122;SDS011;5101;49.038;8.710;2022-12-18T00:25:59;43.90;;;24.90;;
10122;SDS011;5101;49.038;8.710;2022-12-18T00:28:31;42.13;;;23.93;;
10122;SDS011;5101;49.038;8.710;2022-12-18T00:31:00;44.53;;;25.90;;
10122;SDS011;5101;49.038;8.710;2022-12-18T00:33:27;44.73;;;24.77;;
10122;SDS011;5101;49.038;8.710;2022-12-18T00:35:53;43.07;;;23.77;;
10122;SDS011;5101;49.038;8.710;2022-12-18T00:38:18;44.23;;;25.00;;
10122;SDS011;5101;49.038;8.710;2022-12-18T00:40:44;43.50;;;24.10;;
10122;SDS011;5101;49.038;8.710;2022-12-18T00:43:10;41.63;;;23.27;;
10122;SDS011;5101;49.038;8.710;2022-12-18T00:45:36;39.87;;;23.97;;
10122;SDS011;5101;49.038;8.710;2022-12-18T00:48:01;42.60;;;24.80;;
10122;SDS011;5101;49.038;8.710;2022-12-18T00:50:27;43.73;;;26.50;;
10122;SDS011;5101;49.038;8.710;2022-12-18T00:52:52;42.03;;;24.57;;
10122;SDS011;5101;49.038;8.710;2022-12-18T00:55:18;43.07;;;23.97;;
10122;SDS011;5101;49.038;8.710;2022-12-18T00:57:43;43.07;;;24.73;;
10122;SDS011;5101;49.038;8.710;2022-12-18T01:00:11;40.90;;;23.00;;
10122;SDS011;5101;49.038;8.710;2022-12-18T01:02:38;37.47;;;23.00;;
10122;SDS011;5101;49.038;8.710;2022-12-18T01:05:04;42.03;;;24.80;;
10122;SDS011;5101;49.038;8.710;2022-12-18T01:07:30;38.93;;;24.30;;
10122;SDS011;5101;49.038;8.710;2022-12-18T01:09:55;41.87;;;24.97;;
10122;SDS011;5101;49.038;8.710;2022-12-18T01:12:21;43.97;;;24.83;;
10122;SDS011;5101;49.038;8.710;2022-12-18T01:14:46;41.83;;;24.70;;
10122;SDS011;5101;49.038;8.710;2022-12-18T01:17:12;42.70;;;25.03;;
10122;SDS011;5101;49.038;8.710;2022-12-18T01:19:37;43.57;;;25.67;;
10122;SDS011;5101;49.038;8.710;2022-12-18T01:22:03;44.27;;;24.80;;
10122;SDS011;5101;49.038;8.710;2022-12-18T01:24:28;42.47;;;24.97;;
10122;SDS011;5101;49.038;8.710;2022-12-18T01:26:54;44.63;;;24.90;;
10122;SDS011;5101;49.038;8.710;2022-12-18T01:29:19;46.13;;;26.40;;
10122;SDS011;5101;49.038;8.710;2022-12-18T01:31:45;45.77;;;25.73;;
10122;SDS011;5101;49.038;8.710;2022-12-18T01:34:10;43.87;;;24.77;;
10122;SDS011;5101;49.038;8.710;2022-12-18T01:36:36;43.03;;;25.30;;
10122;SDS011;5101;49.038;8.710;2022-12-18T01:39:05;44.43;;;25.33;;
10122;SDS011;5101;49.038;8.710;2022-12-18T01:41:36;46.43;;;25.00;;
10122;SDS011;5101;49.038;8.710;2022-12-18T01:44:52;43.40;;;24.37;;
10122;SDS011;5101;49.038;8.710;2022-12-18T01:47:43;40.73;;;23.37;;
10122;SDS011;5101;49.038;8.710;2022-12-18T01:52:48;43.20;;;24.63;;
10122;SDS011;5101;49.038;8.710;2022-12-18T01:55:17;50.37;;;25.97;;
10122;SDS011;5101;49.038;8.710;2022-12-18T01:57:45;44.10;;;25.13;;
10122;SDS011;5101;49.038;8.710;2022-12-18T02:00:13;47.13;;;26.50;;
10122;SDS011;5101;49.038;8.710;2022-12-18T02:02:41;46.13;;;25.37;;
10122;SDS011;5101;49.038;8.710;2022-12-18T02:05:09;45.77;;;26.27;;
10122;SDS011;5101;49.038;8.710;2022-12-18T02:10:45;41.10;;;24.37;;
10122;SDS011;5101;49.038;8.710;2022-12-18T02:18:50;44.73;;;24.47;;
10122;SDS011;5101;49.038;8.710;2022-12-18T02:27:05;44.27;;;24.57;;
10122;SDS011;5101;49.038;8.710;2022-12-18T02:29:34;45.80;;;24.37;;
10122;SDS011;5101;49.038;8.710;2022-12-18T02:32:04;43.00;;;24.73;;
10122;SDS011;5101;49.038;8.710;2022-12-18T02:34:35;43.07;;;23.77;;
10122;SDS011;5101;49.038;8.710;2022-12-18T02:37:04;43.87;;;24.83;;
10122;SDS011;5101;49.038;8.710;2022-12-18T02:39:36;45.63;;;25.77;;
10122;SDS011;5101;49.038;8.710;2022-12-18T02:42:03;43.67;;;26.40;;
10122;SDS011;5101;49.038;8.710;2022-12-18T02:44:33;42.73;;;24.10;;
10122;SDS011;5101;49.038;8.710;2022-12-18T02:47:15;43.17;;;24.70;;
10122;SDS011;5101;49.038;8.710;2022-12-18T02:49:47;41.73;;;24.40;;
10122;SDS011;5101;49.038;8.710;2022-12-18T02:57:47;40.87;;;24.70;;
10122;SDS011;5101;49.038;8.710;2022-12-18T03:00:21;42.07;;;25.53;;
10122;SDS011;5101;49.038;8.710;2022-12-18T03:02:55;41.50;;;24.20;;
10122;SDS011;5101;49.038;8.710;2022-12-18T03:08:26;43.23;;;24.60;;
10122;SDS011;5101;49.038;8.710;2022-12-18T03:11:03;42.63;;;24.30;;
10122;SDS011;5101;49.038;8.710;2022-12-18T03:13:36;43.87;;;24.60;;
10122;SDS011;5101;49.038;8.710;2022-12-18T03:16:15;41.47;;;23.60;;
10122;SDS011;5101;49.038;8.710;2022-12-18T03:18:53;42.33;;;24.57;;
10122;SDS011;5101;49.038;8.710;2022-12-18T03:21:23;41.47;;;24.20;;
10122;SDS011;5101;49.038;8.710;2022-12-18T03:23:56;39.37;;;23.83;;
10122;SDS011;5101;49.038;8.710;2022-12-18T03:26:24;41.10;;;24.67;;
10122;SDS011;5101;49.038;8.710;2022-12-18T03:28:53;44.03;;;24.90;;
10122;SDS011;5101;49.038;8.710;2022-12-18T03:31:22;40.77;;;23.63;;
10122;SDS011;5101;49.038;8.710;2022-12-18T03:33:52;41.87;;;24.00;;
10122;SDS011;5101;49.038;8.710;2022-12-18T03:36:19;38.23;;;23.27;;
10122;SDS011;5101;49.038;8.710;2022-12-18T03:38:45;37.60;;;23.03;;
10122;SDS011;5101;49.038;8.710;2022-12-18T03:41:24;41.80;;;23.03;;
10122;SDS011;5101;49.038;8.710;2022-12-18T03:44:00;40.23;;;23.40;;
10122;SDS011;5101;49.038;8.710;2022-12-18T03:46:47;43.33;;;23.90;;
10122;SDS011;5101;49.038;8.710;2022-12-18T03:49:33;37.33;;;22.93;;
10122;SDS011;5101;49.038;8.710;2022-12-18T03:52:09;35.47;;;21.23;;
10122;SDS011;5101;49.038;8.710;2022-12-18T03:54:49;40.63;;;23.23;;
10122;SDS011;5101;49.038;8.710;2022-12-18T03:57:18;38.93;;;22.33;;
10122;SDS011;5101;49.038;8.710;2022-12-18T03:59:47;39.43;;;22.50;;
10122;SDS011;5101;49.038;8.710;2022-12-18T04:02:16;40.20;;;22.37;;
10122;SDS011;5101;49.038;8.710;2022-12-18T04:04:43;41.50;;;22.70;;
10122;SDS011;5101;49.038;8.710;2022-12-18T04:07:12;38.70;;;22.23;;
10122;SDS011;5101;49.038;8.710;2022-12-18T04:09:39;35.30;;;21.00;;
10122;SDS011;5101;49.038;8.710;2022-12-18T04:12:06;36.23;;;21.67;;
10122;SDS011;5101;49.038;8.710;2022-12-18T04:14:33;35.73;;;21.47;;
10122;SDS011;5101;49.038;8.710;2022-12-18T04:17:00;36.63;;;21.90;;
10122;SDS011;5101;49.038;8.710;2022-12-18T04:19:26;39.10;;;22.83;;
10122;SDS011;5101;49.038;8.710;2022-12-18T04:21:52;36.93;;;21.93;;
10122;SDS011;5101;49.038;8.710;2022-12-18T04:24:17;37.97;;;23.00;;
10122;SDS011;5101;49.038;8.710;2022-12-18T04:26:42;40.23;;;22.73;;
10122;SDS011;5101;49.038;8.710;2022-12-18T04:29:08;39.00;;;23.30;;
10122;SDS011;5101;49.038;8.710;2022-12-18T04:31:33;36.10;;;20.73;;
10122;SDS011;5101;49.038;8.710;2022-12-18T04:33:59;40.23;;;22.10;;
10122;SDS011;5101;49.038;8.710;2022-12-18T04:36:25;33.33;;;19.03;;
10122;SDS011;5101;49.038;8.710;2022-12-18T04:38:51;38.53;;;21.53;;
10122;SDS011;5101;49.038;8.710;2022-12-18T04:41:17;37.73;;;20.40;;
10122;SDS011;5101;49.038;8.710;2022-12-18T04:43:42;35.47;;;20.27;;
10122;SDS011;5101;49.038;8.710;2022-12-18T04:46:08;38.23;;;20.97;;
10122;SDS011;5101;49.038;8.710;2022-12-18T04:48:34;37.40;;;20.10;;
10122;SDS011;5101;49.038;8.710;2022-12-18T04:51:00;35.87;;;20.67;;
10122;SDS011;5101;49.038;8.710;2022-12-18T04:53:26;35.40;;;20.37;;
10122;SDS011;5101;49.038;8.710;2022-12-18T04:56:02;35.17;;;19.97;;
10122;SDS011;5101;49.038;8.710;2022-12-18T04:58:32;33.37;;;20.57;;
10122;SDS011;5101;49.038;8.710;2022-12-18T05:00:57;33.50;;;19.63;;
10122;SDS011;5101;49.038;8.710;2022-12-18T05:03:23;36.63;;;20.57;;
10122;SDS011;5101;49.038;8.710;2022-12-18T05:05:49;38.27;;;20.67;;
10122;SDS011;5101;49.038;8.710;2022-12-18T05:08:16;33.23;;;19.27;;
10122;SDS011;5101;49.038;8.710;2022-12-18T05:10:41;34.40;;;19.43;;
10122;SDS011;5101;49.038;8.710;2022-12-18T05:13:07;30.00;;;18.30;;
10122;SDS011;5101;49.038;8.710;2022-12-18T05:15:33;33.93;;;18.50;;
10122;SDS011;5101;49.038;8.710;2022-12-18T05:17:58;31.83;;;19.00;;
10122;SDS011;5101;49.038;8.710;2022-12-18T05:20:25;30.80;;;18.23;;
10122;SDS011;5101;49.038;8.710;2022-12-18T05:22:51;29.60;;;18.47;;
10122;SDS011;5101;49.038;8.710;2022-12-18T05:25:17;31.67;;;19.43;;
10122;SDS011;5101;49.038;8.710;2022-12-18T05:27:44;30.60;;;18.60;;
10122;SDS011;5101;49.038;8.710;2022-12-18T05:30:10;30.80;;;18.23;;
10122;SDS011;5101;49.038;8.710;2022-12-18T05:32:36;30.00;;;17.33;;
10122;SDS011;5101;49.038;8.710;2022-12-18T05:35:03;28.20;;;16.87;;
10122;SDS011;5101;49.038;8.710;2022-12-18T05:37:30;33.63;;;17.87;;
10122;SDS011;5101;49.038;8.710;2022-12-18T05:39:56;29.57;;;18.40;;
10122;SDS011;5101;49.038;8.710;2022-12-18T05:42:21;29.60;;;17.33;;
10122;SDS011;5101;49.038;8.710;2022-12-18T05:44:47;28.07;;;16.57;;
10122;SDS011;5101;49.038;8.710;2022-12-18T05:47:12;31.07;;;17.87;;
10122;SDS011;5101;49.038;8.710;2022-12-18T05:49:38;30.40;;;17.73;;
10122;SDS011;5101;49.038;8.710;2022-12-18T05:52:03;33.00;;;18.03;;
10122;SDS011;5101;49.038;8.710;2022-12-18T05:54:29;29.00;;;17.47;;
10122;SDS011;5101;49.038;8.710;2022-12-18T05:56:56;33.23;;;18.80;;
10122;SDS011;5101;49.038;8.710;2022-12-18T05:59:21;30.20;;;17.87;;
10122;SDS011;5101;49.038;8.710;2022-12-18T06:01:47;28.57;;;17.40;;
10122;SDS011;5101;49.038;8.710;2022-12-18T06:04:12;27.43;;;16.70;;
10122;SDS011;5101;49.038;8.710;2022-12-18T06:06:38;30.53;;;17.60;;
10122;SDS011;5101;49.038;8.710;2022-12-18T06:09:03;32.23;;;17.83;;
10122;SDS011;5101;49.038;8.710;2022-12-18T06:11:33;30.17;;;17.43;;
10122;SDS011;5101;49.038;8.710;2022-12-18T06:13:59;29.37;;;16.93;;
10122;SDS011;5101;49.038;8.710;2022-12-18T06:16:25;30.30;;;16.70;;
10122;SDS011;5101;49.038;8.710;2022-12-18T06:18:52;30.93;;;17.07;;
10122;SDS011;5101;49.038;8.710;2022-12-18T06:21:18;30.23;;;17.43;;
10122;SDS011;5101;49.038;8.710;2022-12-18T06:23:43;28.87;;;17.03;;
10122;SDS011;5101;49.038;8.710;2022-12-18T06:26:09;29.40;;;16.97;;
10122;SDS011;5101;49.038;8.710;2022-12-18T06:28:36;31.03;;;17.57;;
10122;SDS011;5101;49.038;8.710;2022-12-18T06:31:03;29.33;;;17.33;;
10122;SDS011;5101;49.038;8.710;2022-12-18T06:33:29;29.77;;;17.13;;
10122;SDS011;5101;49.038;8.710;2022-12-18T06:35:59;26.87;;;16.13;;
10122;SDS011;5101;49.038;8.710;2022-12-18T06:38:26;32.67;;;17.40;;
10122;SDS011;5101;49.038;8.710;2022-12-18T06:40:51;29.20;;;16.80;;
10122;SDS011;5101;49.038;8.710;2022-12-18T06:43:17;27.77;;;16.70;;
10122;SDS011;5101;49.038;8.710;2022-12-18T06:45:42;30.97;;;16.97;;
10122;SDS011;5101;49.038;8.710;2022-12-18T06:48:08;29.20;;;16.30;;
10122;SDS011;5101;49.038;8.710;2022-12-18T06:50:33;28.73;;;16.87;;
10122;SDS011;5101;49.038;8.710;2022-12-18T06:52:59;28.00;;;16.27;;
10122;SDS011;5101;49.038;8.710;2022-12-18T06:55:24;31.27;;;17.03;;
10122;SDS011;5101;49.038;8.710;2022-12-18T06:57:50;29.67;;;16.20;;
10122;SDS011;5101;49.038;8.710;2022-12-18T07:00:16;30.67;;;16.60;;
10122;SDS011;5101;49.038;8.710;2022-12-18T07:02:41;29.00;;;16.37;;
10122;SDS011;5101;49.038;8.710;2022-12-18T07:05:07;26.37;;;15.93;;
10122;SDS011;5101;49.038;8.710;2022-12-18T07:07:33;27.63;;;15.97;;
10122;SDS011;5101;49.038;8.710;2022-12-18T07:09:59;31.17;;;16.87;;
10122;SDS011;5101;49.038;8.710;2022-12-18T07:12:26;28.30;;;15.27;;
10122;SDS011;5101;49.038;8.710;2022-12-18T07:14:52;26.73;;;15.10;;
10122;SDS011;5101;49.038;8.710;2022-12-18T07:17:17;31.13;;;17.03;;
10122;SDS011;5101;49.038;8.710;2022-12-18T07:19:43;33.67;;;17.17;;
10122;SDS011;5101;49.038;8.710;2022-12-18T07:22:08;29.50;;;16.37;;
10122;SDS011;5101;49.038;8.710;2022-12-18T07:24:34;29.67;;;16.50;;
10122;SDS011;5101;49.038;8.710;2022-12-18T07:26:59;28.77;;;16.57;;
10122;SDS011;5101;49.038;8.710;2022-12-18T07:29:25;31.97;;;16.73;;
10122;SDS011;5101;49.038;8.710;2022-12-18T07:31:50;31.77;;;17.20;;
10122;SDS011;5101;49.038;8.710;2022-12-18T07:34:16;30.47;;;16.57;;
10122;SDS011;5101;49.038;8.710;2022-12-18T07:36:42;33.80;;;17.37;;
10122;SDS011;5101;49.038;8.710;2022-12-18T07:39:07;30.73;;;16.93;;
10122;SDS011;5101;49.038;8.710;2022-12-18T07:41:33;32.27;;;17.10;;
10122;SDS011;5101;49.038;8.710;2022-12-18T07:43:58;31.00;;;17.40;;
10122;SDS011;5101;49.038;8.710;2022-12-18T07:46:24;32.67;;;17.33;;
10122;SDS011;5101;49.038;8.710;2022-12-18T07:48:49;32.33;;;17.30;;
10122;SDS011;5101;49.038;8.710;2022-12-18T07:51:15;32.57;;;17.10;;
10122;SDS011;5101;49.038;8.710;2022-12-18T07:53:41;30.63;;;17.27;;
10122;SDS011;5101;49.038;8.710;2022-12-18T07:56:08;28.53;;;16.57;;
10122;SDS011;5101;49.038;8.710;2022-12-18T07:58:35;32.03;;;17.43;;
10122;SDS011;5101;49.038;8.710;2022-12-18T08:01:03;32.13;;;16.97;;
10122;SDS011;5101;49.038;8.710;2022-12-18T08:03:30;31.67;;;17.07;;
10122;SDS011;5101;49.038;8.710;2022-12-18T08:05:59;29.40;;;16.60;;
10122;SDS011;5101;49.038;8.710;2022-12-18T08:08:26;30.23;;;16.80;;
10122;SDS011;5101;49.038;8.710;2022-12-18T08:10:51;28.50;;;17.20;;
10122;SDS011;5101;49.038;8.710;2022-12-18T08:13:17;33.20;;;18.17;;
10122;SDS011;5101;49.038;8.710;2022-12-18T08:15:42;31.07;;;18.13;;
10122;SDS011;5101;49.038;8.710;2022-12-18T08:18:08;32.07;;;17.93;;
10122;SDS011;5101;49.038;8.710;2022-12-18T08:20:33;33.20;;;18.13;;
10122;SDS011;5101;49.038;8.710;2022-12-18T08:22:59;31.13;;;17.83;;
10122;SDS011;5101;49.038;8.710;2022-12-18T08:25:24;33.97;;;19.47;;
10122;SDS011;5101;49.038;8.710;2022-12-18T08:27:50;37.97;;;18.77;;
10122;SDS011;5101;49.038;8.710;2022-12-18T08:30:15;36.77;;;20.07;;
10122;SDS011;5101;49.038;8.710;2022-12-18T08:32:41;31.63;;;18.20;;
10122;SDS011;5101;49.038;8.710;2022-12-18T08:35:06;36.20;;;19.30;;
10122;SDS011;5101;49.038;8.710;2022-12-18T08:37:33;31.27;;;18.07;;
10122;SDS011;5101;49.038;8.710;2022-12-18T08:39:59;39.00;;;21.43;;
10122;SDS011;5101;49.038;8.710;2022-12-18T08:42:25;36.87;;;21.20;;
10122;SDS011;5101;49.038;8.710;2022-12-18T08:45:09;34.03;;;19.60;;
10122;SDS011;5101;49.038;8.710;2022-12-18T08:47:34;34.60;;;19.67;;
10122;SDS011;5101;49.038;8.710;2022-12-18T08:50:00;34.80;;;19.80;;
10122;SDS011;5101;49.038;8.710;2022-12-18T08:52:25;29.93;;;18.23;;
10122;SDS011;5101;49.038;8.710;2022-12-18T08:54:51;31.17;;;17.90;;
10122;SDS011;5101;49.038;8.710;2022-12-18T08:57:16;28.50;;;18.33;;
10122;SDS011;5101;49.038;8.710;2022-12-18T08:59:42;31.40;;;18.30;;
10122;SDS011;5101;49.038;8.710;2022-12-18T09:02:11;29.90;;;18.10;;
10122;SDS011;5101;49.038;8.710;2022-12-18T09:04:36;30.10;;;18.43;;
10122;SDS011;5101;49.038;8.710;2022-12-18T09:07:02;33.53;;;18.83;;
10122;SDS011;5101;49.038;8.710;2022-12-18T09:09:27;32.27;;;18.57;;
10122;SDS011;5101;49.038;8.710;2022-12-18T09:11:53;31.40;;;17.80;;
10122;SDS011;5101;49.038;8.710;2022-12-18T09:14:18;29.97;;;17.90;;
10122;SDS011;5101;49.038;8.710;2022-12-18T09:16:44;31.97;;;18.60;;
10122;SDS011;5101;49.038;8.710;2022-12-18T09:19:09;32.93;;;17.77;;
10122;SDS011;5101;49.038;8.710;2022-12-18T09:21:38;30.27;;;17.27;;
10122;SDS011;5101;49.038;8.710;2022-12-18T09:24:04;28.13;;;17.07;;
10122;SDS011;5101;49.038;8.710;2022-12-18T09:26:30;25.47;;;16.43;;
10122;SDS011;5101;49.038;8.710;2022-12-18T09:28:55;28.13;;;17.17;;
10122;SDS011;5101;49.038;8.710;2022-12-18T09:31:21;28.10;;;17.50;;
10122;SDS011;5101;49.038;8.710;2022-12-18T09:33:48;28.40;;;17.63;;
10122;SDS011;5101;49.038;8.710;2022-12-18T09:36:15;25.07;;;16.50;;
10122;SDS011;5101;49.038;8.710;2022-12-18T09:38:42;26.17;;;16.73;;
10122;SDS011;5101;49.038;8.710;2022-12-18T09:44:01;26.83;;;16.67;;
10122;SDS011;5101;49.038;8.710;2022-12-18T09:46:37;26.50;;;16.90;;
10122;SDS011;5101;49.038;8.710;2022-12-18T09:49:10;27.40;;;16.53;;
10122;SDS011;5101;49.038;8.710;2022-12-18T09:51:40;29.47;;;18.10;;
10122;SDS011;5101;49.038;8.710;2022-12-18T09:54:22;30.27;;;17.27;;
10122;SDS011;5101;49.038;8.710;2022-12-18T09:57:23;26.77;;;16.03;;
10122;SDS011;5101;49.038;8.710;2022-12-18T10:00:04;26.40;;;16.83;;
10122;SDS011;5101;49.038;8.710;2022-12-18T10:02:43;27.27;;;16.90;;
10122;SDS011;5101;49.038;8.710;2022-12-18T10:05:13;25.90;;;16.60;;
10122;SDS011;5101;49.038;8.710;2022-12-18T10:10:40;24.93;;;16.03;;
10122;SDS011;5101;49.038;8.710;2022-12-18T10:13:33;24.83;;;15.47;;
10122;SDS011;5101;49.038;8.710;2022-12-18T10:16:12;27.07;;;16.50;;
10122;SDS011;5101;49.038;8.710;2022-12-18T10:21:40;29.57;;;17.13;;
10122;SDS011;5101;49.038;8.710;2022-12-18T10:24:34;25.93;;;16.47;;
10122;SDS011;5101;49.038;8.710;2022-12-18T10:27:18;28.27;;;16.93;;
10122;SDS011;5101;49.038;8.710;2022-12-18T10:29:48;28.57;;;17.33;;
10122;SDS011;5101;49.038;8.710;2022-12-18T10:32:15;27.77;;;18.03;;
10122;SDS011;5101;49.038;8.710;2022-12-18T10:34:49;27.63;;;18.13;;
10122;SDS011;5101;49.038;8.710;2022-12-18T10:37:20;27.60;;;16.70;;
10122;SDS011;5101;49.038;8.710;2022-12-18T10:42:34;36.80;;;20.10;;
10122;SDS011;5101;49.038;8.710;2022-12-18T10:45:05;38.20;;;21.37;;
10122;SDS011;5101;49.038;8.710;2022-12-18T10:47:36;49.93;;;25.90;;
10122;SDS011;5101;49.038;8.710;2022-12-18T10:50:10;31.63;;;19.63;;
10122;SDS011;5101;49.038;8.710;2022-12-18T10:52:51;28.80;;;17.60;;
10122;SDS011;5101;49.038;8.710;2022-12-18T10:55:32;28.23;;;18.67;;
10122;SDS011;5101;49.038;8.710;2022-12-18T10:58:16;29.43;;;18.53;;
10122;SDS011;5101;49.038;8.710;2022-12-18T11:08:36;28.87;;;17.60;;
10122;SDS011;5101;49.038;8.710;2022-12-18T11:11:03;26.80;;;17.50;;
10122;SDS011;5101;49.038;8.710;2022-12-18T11:13:32;30.03;;;18.97;;
10122;SDS011;5101;49.038;8.710;2022-12-18T11:15:58;28.50;;;18.03;;
10122;SDS011;5101;49.038;8.710;2022-12-18T11:20:53;29.73;;;17.93;;
10122;SDS011;5101;49.038;8.710;2022-12-18T11:23:24;26.97;;;18.23;;
10122;SDS011;5101;49.038;8.710;2022-12-18T11:25:58;28.47;;;18.17;;
10122;SDS011;5101;49.038;8.710;2022-12-18T11:33:47;27.43;;;17.97;;
10122;SDS011;5101;49.038;8.710;2022-12-18T11:36:43;30.70;;;19.53;;
10122;SDS011;5101;49.038;8.710;2022-12-18T11:39:33;27.53;;;17.87;;
10122;SDS011;5101;49.038;8.710;2022-12-18T11:42:09;26.97;;;18.17;;
10122;SDS011;5101;49.038;8.710;2022-12-18T11:47:18;26.73;;;17.67;;
10122;SDS011;5101;49.038;8.710;2022-12-18T11:49:50;28.70;;;18.70;;
10122;SDS011;5101;49.038;8.710;2022-12-18T11:54:51;28.83;;;18.03;;
10122;SDS011;5101;49.038;8.710;2022-12-18T11:57:25;27.73;;;18.17;;
10122;SDS011;5101;49.038;8.710;2022-12-18T12:00:12;29.23;;;18.23;;
10122;SDS011;5101;49.038;8.710;2022-12-18T12:03:17;29.03;;;18.40;;
10122;SDS011;5101;49.038;8.710;2022-12-18T12:08:44;27.00;;;18.30;;
10122;SDS011;5101;49.038;8.710;2022-12-18T12:11:18;28.90;;;18.13;;
10122;SDS011;5101;49.038;8.710;2022-12-18T12:16:46;29.53;;;18.90;;
10122;SDS011;5101;49.038;8.710;2022-12-18T12:19:42;30.10;;;19.17;;
10122;SDS011;5101;49.038;8.710;2022-12-18T12:25:28;30.83;;;19.03;;
10122;SDS011;5101;49.038;8.710;2022-12-18T12:28:16;29.13;;;19.60;;
10122;SDS011;5101;49.038;8.710;2022-12-18T12:31:08;31.40;;;19.23;;
10122;SDS011;5101;49.038;8.710;2022-12-18T12:33:52;28.97;;;19.70;;
10122;SDS011;5101;49.038;8.710;2022-12-18T12:36:40;30.53;;;18.57;;
10122;SDS011;5101;49.038;8.710;2022-12-18T12:39:15;31.77;;;18.53;;
10122;SDS011;5101;49.038;8.710;2022-12-18T12:41:45;30.73;;;18.70;;
10122;SDS011;5101;49.038;8.710;2022-12-18T12:44:32;31.37;;;19.23;;
10122;SDS011;5101;49.038;8.710;2022-12-18T12:47:01;32.47;;;19.17;;
10122;SDS011;5101;49.038;8.710;2022-12-18T12:49:40;33.60;;;19.33;;
10122;SDS011;5101;49.038;8.710;2022-12-18T12:52:07;31.83;;;20.23;;
10122;SDS011;5101;49.038;8.710;2022-12-18T12:54:38;30.07;;;19.20;;
10122;SDS011;5101;49.038;8.710;2022-12-18T13:02:37;30.23;;;18.80;;
10122;SDS011;5101;49.038;8.710;2022-12-18T13:05:31;34.33;;;18.87;;
10122;SDS011;5101;49.038;8.710;2022-12-18T13:08:34;30.67;;;18.50;;
10122;SDS011;5101;49.038;8.710;2022-12-18T13:11:28;32.17;;;18.67;;
10122;SDS011;5101;49.038;8.710;2022-12-18T13:14:20;27.90;;;17.83;;
10122;SDS011;5101;49.038;8.710;2022-12-18T13:19:50;29.30;;;18.27;;
10122;SDS011;5101;49.038;8.710;2022-12-18T13:22:20;36.20;;;19.93;;
10122;SDS011;5101;49.038;8.710;2022-12-18T13:24:48;32.00;;;19.87;;
10122;SDS011;5101;49.038;8.710;2022-12-18T13:35:51;28.43;;;17.90;;
10122;SDS011;5101;49.038;8.710;2022-12-18T13:38:37;31.20;;;18.50;;
10122;SDS011;5101;49.038;8.710;2022-12-18T13:43:45;28.47;;;17.53;;
10122;SDS011;5101;49.038;8.710;2022-12-18T13:49:01;30.97;;;18.13;;
10122;SDS011;5101;49.038;8.710;2022-12-18T13:51:42;33.07;;;18.87;;
10122;SDS011;5101;49.038;8.710;2022-12-18T13:57:00;31.47;;;19.37;;
10122;SDS011;5101;49.038;8.710;2022-12-18T13:59:35;28.60;;;17.80;;
10122;SDS011;5101;49.038;8.710;2022-12-18T14:02:36;31.63;;;18.80;;
10122;SDS011;5101;49.038;8.710;2022-12-18T14:04:54;36.43;;;20.33;;
10122;SDS011;5101;49.038;8.710;2022-12-18T14:07:26;37.20;;;21.27;;
10122;SDS011;5101;49.038;8.710;2022-12-18T14:09:54;34.63;;;19.83;;
10122;SDS011;5101;49.038;8.710;2022-12-18T14:12:26;37.63;;;21.93;;
10122;SDS011;5101;49.038;8.710;2022-12-18T14:15:20;36.63;;;21.13;;
10122;SDS011;5101;49.038;8.710;2022-12-18T14:20:46;33.13;;;20.63;;
10122;SDS011;5101;49.038;8.710;2022-12-18T14:23:28;32.70;;;19.10;;
10122;SDS011;5101;49.038;8.710;2022-12-18T14:25:59;31.87;;;19.67;;
10122;SDS011;5101;49.038;8.710;2022-12-18T14:28:43;34.43;;;19.33;;
10122;SDS011;5101;49.038;8.710;2022-12-18T14:31:16;32.83;;;19.90;;
10122;SDS011;5101;49.038;8.710;2022-12-18T14:33:43;32.57;;;19.63;;
10122;SDS011;5101;49.038;8.710;2022-12-18T14:36:13;32.37;;;19.00;;
10122;SDS011;5101;49.038;8.710;2022-12-18T14:38:41;33.03;;;19.67;;
10122;SDS011;5101;49.038;8.710;2022-12-18T14:41:10;39.37;;;21.17;;
10122;SDS011;5101;49.038;8.710;2022-12-18T14:43:41;32.77;;;20.43;;
10122;SDS011;5101;49.038;8.710;2022-12-18T14:49:01;34.80;;;20.30;;
10122;SDS011;5101;49.038;8.710;2022-12-18T14:51:30;32.40;;;19.50;;
10122;SDS011;5101;49.038;8.710;2022-12-18T14:54:02;35.57;;;20.40;;
10122;SDS011;5101;49.038;8.710;2022-12-18T14:56:36;31.57;;;19.60;;
10122;SDS011;5101;49.038;8.710;2022-12-18T15:01:45;33.50;;;20.30;;
10122;SDS011;5101;49.038;8.710;2022-12-18T15:07:01;41.80;;;24.57;;
10122;SDS011;5101;49.038;8.710;2022-12-18T15:09:40;34.57;;;19.60;;
10122;SDS011;5101;49.038;8.710;2022-12-18T15:12:22;34.17;;;20.27;;
10122;SDS011;5101;49.038;8.710;2022-12-18T15:14:52;36.00;;;21.20;;
10122;SDS011;5101;49.038;8.710;2022-12-18T15:17:19;32.60;;;18.40;;
10122;SDS011;5101;49.038;8.710;2022-12-18T15:19:47;33.63;;;19.47;;
10122;SDS011;5101;49.038;8.710;2022-12-18T15:24:49;31.23;;;18.57;;
10122;SDS011;5101;49.038;8.710;2022-12-18T15:27:25;34.23;;;18.80;;
10122;SDS011;5101;49.038;8.710;2022-12-18T15:30:15;32.20;;;17.93;;
10122;SDS011;5101;49.038;8.710;2022-12-18T15:32:43;32.13;;;18.63;;
10122;SDS011;5101;49.038;8.710;2022-12-18T15:37:44;31.00;;;19.73;;
10122;SDS011;5101;49.038;8.710;2022-12-18T15:40:13;32.43;;;19.40;;
10122;SDS011;5101;49.038;8.710;2022-12-18T15:42:41;35.53;;;18.93;;
10122;SDS011;5101;49.038;8.710;2022-12-18T15:45:25;33.10;;;18.77;;
10122;SDS011;5101;49.038;8.710;2022-12-18T15:47:51;34.80;;;19.03;;
10122;SDS011;5101;49.038;8.710;2022-12-18T15:50:17;32.87;;;19.43;;
10122;SDS011;5101;49.038;8.710;2022-12-18T15:52:43;32.17;;;19.27;;
10122;SDS011;5101;49.038;8.710;2022-12-18T15:55:15;31.60;;;18.57;;
10122;SDS011;5101;49.038;8.710;2022-12-18T15:58:01;35.03;;;18.67;;
10122;SDS011;5101;49.038;8.710;2022-12-18T16:00:27;29.33;;;18.27;;
10122;SDS011;5101;49.038;8.710;2022-12-18T16:02:52;33.40;;;19.00;;
10122;SDS011;5101;49.038;8.710;2022-12-18T16:05:19;36.03;;;20.50;;
10122;SDS011;5101;49.038;8.710;2022-12-18T16:07:46;37.53;;;21.80;;
10122;SDS011;5101;49.038;8.710;2022-12-18T16:10:13;35.50;;;19.33;;
10122;SDS011;5101;49.038;8.710;2022-12-18T16:12:39;32.97;;;18.70;;
10122;SDS011;5101;49.038;8.710;2022-12-18T16:15:05;34.40;;;19.43;;
10122;SDS011;5101;49.038;8.710;2022-12-18T16:17:31;34.30;;;19.50;;
10122;SDS011;5101;49.038;8.710;2022-12-18T16:19:57;32.33;;;18.97;;
10122;SDS011;5101;49.038;8.710;2022-12-18T16:22:27;35.37;;;18.37;;
10122;SDS011;5101;49.038;8.710;2022-12-18T16:24:54;30.60;;;19.43;;
10122;SDS011;5101;49.038;8.710;2022-12-18T16:27:21;34.70;;;19.60;;
10122;SDS011;5101;49.038;8.710;2022-12-18T16:29:47;33.73;;;18.27;;
10122;SDS011;5101;49.038;8.710;2022-12-18T16:32:14;32.50;;;19.37;;
10122;SDS011;5101;49.038;8.710;2022-12-18T16:34:41;33.73;;;19.17;;
10122;SDS011;5101;49.038;8.710;2022-12-18T16:37:09;36.27;;;20.07;;
10122;SDS011;5101;49.038;8.710;2022-12-18T16:39:35;37.13;;;20.87;;